This is the latest recevied weather packets stored in our database for station/object N6RDS-8. If no packets are shown the sender has not sent any weather packets the latest 1 day(s).
| Time | Temp. | Humidity | Pressure | Rain* | Wind** | Luminosity | Snow |
|---|---|---|---|---|---|---|---|
| 1778084297 | 17.78° C | 44% | 1020.3 hPa | 0 mm | - | 501 W/m² | - |
| 1778083994 | 17.78° C | 44% | 1019.9 hPa | 0 mm | - | 487 W/m² | - |
| 1778083388 | 17.22° C | 45% | 1020.3 hPa | 0 mm | - | 458 W/m² | - |
| 1778083087 | 16.67° C | 46% | 1020 hPa | 0 mm | - | 445 W/m² | - |
| 1778082783 | 16.67° C | 48% | 1020.1 hPa | 0 mm | - | 427 W/m² | - |
| 1778081348 | 16.11° C | 48% | 1020 hPa | 0 mm | - | 360 W/m² | - |
| 1778078319 | 13.33° C | 58% | 1020.4 hPa | 0 mm | - | 208 W/m² | - |
| 1778077714 | 13.33° C | 58% | 1020.5 hPa | 0 mm | - | 177 W/m² | - |
| 1778076202 | 10° C | 65% | 1020.4 hPa | 0 mm | - | 111 W/m² | - |
| 1778075899 | 10° C | 67% | 1020.3 hPa | 0 mm | - | 100 W/m² | - |
| 1778075292 | 9.44° C | 69% | 1020.3 hPa | 0 mm | - | 79 W/m² | - |
| 1778074079 | 9.44° C | 71% | 1020.1 hPa | 0 mm | - | 46 W/m² | - |
| 1778073776 | 8.33° C | 73% | 1020 hPa | 0 mm | - | 40 W/m² | - |
| 1778069843 | 5° C | 81% | 1019.5 hPa | 0 mm | - | 0 W/m² | - |
| 1778069539 | 5° C | 82% | 1019.4 hPa | 0 mm | - | 0 W/m² | - |
| 1778068934 | 5° C | 81% | 1019.3 hPa | 0 mm | - | 0 W/m² | - |
| 1778068330 | 5.56° C | 81% | 1019.1 hPa | 0 mm | - | 0 W/m² | - |
| 1778067423 | 5.56° C | 79% | 1019.1 hPa | 0 mm | - | 0 W/m² | - |
| 1778066514 | 5.56° C | 83% | 1019.1 hPa | 0 mm | - | 0 W/m² | - |
| 1778065909 | 5.56° C | 82% | 1019.1 hPa | 0 mm | - | 0 W/m² | - |
| 1778065606 | 6.11° C | 81% | 1019 hPa | 0 mm | - | 0 W/m² | - |
| 1778064395 | 6.67° C | 78% | 1018.8 hPa | 0 mm | - | 0 W/m² | - |
| 1778063486 | 8.89° C | 73% | 1018.6 hPa | 0 mm | - | 0 W/m² | - |
| 1778062578 | 8.89° C | 73% | 1018.6 hPa | 0 mm | - | 0 W/m² | - |
| 1778061671 | 8.33° C | 74% | 1018.4 hPa | 0 mm | - | 0 W/m² | - |
* Rain latest hour (hover to see other rain measurements)
** Current wind speed in m/s (hover to see current wind gust speed)